Time;durP1;ratioP1;P1;durP2;ratioP2;P2;SDS_P1;SDS_P2;PMS_P1;PMS_P2;Temp;Humidity;BMP_temperature;BMP_pressure;BME280_temperature;BME280_humidity;BME280_pressure;Samples;Min_cycle;Max_cycle;Signal;HPM_P1;HPM_P2
2022/01/12 00:01:12;;;;;;;25.25;9.80;;;-4.10;99.90;;;;;;4970032;28;20392;-78
2022/01/12 00:03:38;;;;;;;29.67;13.07;;;-4.20;99.90;;;;;;4969314;28;20022;-78
2022/01/12 00:06:05;;;;;;;20.63;7.60;;;-4.20;99.90;;;;;;4988036;28;20031;-79
2022/01/12 00:08:32;;;;;;;15.93;6.38;;;-4.30;99.90;;;;;;4984769;28;20474;-78
2022/01/12 00:11:02;;;;;;;15.30;6.43;;;-4.30;99.90;;;;;;4970269;28;20026;-79
2022/01/12 00:13:28;;;;;;;12.82;5.72;;;-4.30;99.90;;;;;;4992368;28;20037;-80
2022/01/12 00:15:54;;;;;;;18.23;8.35;;;-4.30;99.90;;;;;;4996281;28;20007;-79
2022/01/12 00:18:20;;;;;;;24.40;10.60;;;-4.40;99.90;;;;;;4994623;28;20038;-80
2022/01/12 00:20:47;;;;;;;21.27;10.35;;;-4.40;99.90;;;;;;4976639;28;20023;-79
2022/01/12 00:23:15;;;;;;;18.80;7.97;;;-4.40;99.90;;;;;;5071609;23;20099;-79
2022/01/12 00:33:53;;;;;;;16.50;6.25;;;-4.00;99.90;;;;;;4950210;29;20120;-80
2022/01/12 00:36:19;;;;;;;24.15;5.43;;;-4.10;99.90;;;;;;4931785;29;20015;-79
2022/01/12 00:38:45;;;;;;;9.73;4.05;;;-4.00;99.90;;;;;;4934009;29;20032;-79
2022/01/12 00:41:11;;;;;;;11.85;4.63;;;-4.10;99.90;;;;;;4942296;29;20032;-80
2022/01/12 00:43:42;;;;;;;9.60;4.40;;;-4.00;99.90;;;;;;4958066;28;20039;-79
2022/01/12 00:46:08;;;;;;;13.95;4.30;;;-3.90;99.90;;;;;;4944438;28;20016;-79
2022/01/12 00:48:37;;;;;;;14.77;6.30;;;-4.10;99.90;;;;;;4943329;29;20039;-79
2022/01/12 00:51:03;;;;;;;19.58;5.97;;;-4.00;99.90;;;;;;4942024;29;20040;-81
2022/01/12 00:53:30;;;;;;;13.27;6.30;;;-4.10;99.90;;;;;;4959532;28;20075;-80
2022/01/12 00:55:56;;;;;;;13.60;6.55;;;-4.10;99.90;;;;;;4942587;29;20035;-82
2022/01/12 00:58:22;;;;;;;17.60;7.68;;;-4.10;99.90;;;;;;4942208;29;20067;-80
2022/01/12 01:00:48;;;;;;;21.73;9.10;;;-4.10;99.90;;;;;;4941391;29;20036;-79
2022/01/12 01:03:16;;;;;;;32.50;12.80;;;-4.10;99.90;;;;;;4941204;29;20024;-81
2022/01/12 01:05:42;;;;;;;19.80;8.30;;;-4.10;99.90;;;;;;4941362;29;20040;-80
2022/01/12 01:08:08;;;;;;;13.23;6.50;;;-4.00;99.90;;;;;;4941389;29;20099;-81
2022/01/12 01:10:46;;;;;;;17.35;6.35;;;-4.00;99.90;;;;;;4942248;29;20012;-80
2022/01/12 01:13:18;;;;;;;11.15;4.63;;;-4.10;99.90;;;;;;4941945;29;20020;-81
2022/01/12 01:26:28;;;;;;;22.77;8.52;;;-4.30;99.90;;;;;;4987991;28;20030;-80
2022/01/12 01:28:53;;;;;;;24.23;10.07;;;-4.50;99.90;;;;;;4968688;28;20026;-79
2022/01/12 01:31:20;;;;;;;17.65;6.82;;;-4.50;99.90;;;;;;4968860;28;20110;-79
2022/01/12 01:33:47;;;;;;;14.70;6.05;;;-4.60;99.90;;;;;;4965392;28;20039;-79
2022/01/12 01:36:15;;;;;;;18.65;5.32;;;-4.80;99.90;;;;;;4970286;28;20121;-79
2022/01/12 01:38:41;;;;;;;22.27;10.65;;;-5.00;99.90;;;;;;4986423;28;20029;-79
2022/01/12 01:41:06;;;;;;;18.75;6.28;;;-5.10;99.90;;;;;;4986803;28;20082;-79
2022/01/12 01:54:13;;;;;;;13.43;5.80;;;-5.30;99.90;;;;;;4999422;28;20061;-79
2022/01/12 01:56:39;;;;;;;12.73;5.38;;;-5.40;99.90;;;;;;4981751;28;20103;-78
2022/01/12 01:59:05;;;;;;;27.63;10.85;;;-5.30;99.90;;;;;;4998896;28;20023;-80
2022/01/12 02:01:31;;;;;;;27.50;11.25;;;-5.50;99.90;;;;;;4980875;28;20023;-80
2022/01/12 02:04:01;;;;;;;28.15;12.10;;;-5.50;99.90;;;;;;4994286;28;20022;-79
2022/01/12 02:06:29;;;;;;;40.03;14.38;;;-5.40;99.90;;;;;;4995052;28;20054;-79
2022/01/12 02:08:55;;;;;;;41.65;18.92;;;-5.40;99.90;;;;;;4967664;28;20042;-79
2022/01/12 02:11:28;;;;;;;49.47;24.65;;;-5.40;99.90;;;;;;4987533;28;20066;-79
2022/01/12 02:13:54;;;;;;;29.05;12.77;;;-5.40;99.90;;;;;;4987242;28;20384;-78
2022/01/12 02:16:32;;;;;;;34.17;13.05;;;-5.40;99.90;;;;;;4987917;28;20011;-80
2022/01/12 02:19:30;;;;;;;28.33;12.73;;;-5.40;99.90;;;;;;4971869;28;20023;-80
2022/01/12 02:35:53;;;;;;;18.52;6.57;;;-5.70;99.90;;;;;;4990502;28;20083;-80
2022/01/12 02:41:01;;;;;;;13.63;5.47;;;-5.60;99.90;;;;;;4985541;28;20066;-79
2022/01/12 02:43:40;;;;;;;12.40;4.88;;;-5.70;99.90;;;;;;4968304;28;20023;-78
2022/01/12 02:53:38;;;;;;;9.32;3.63;;;-5.70;99.90;;;;;;4961745;28;20044;-78
2022/01/12 02:54:20;;;;;;;12.35;4.97;;;-5.70;99.90;;;;;;4965181;28;20073;-77
2022/01/12 02:56:46;;;;;;;15.73;5.32;;;-5.70;99.90;;;;;;4973925;28;20049;-78
2022/01/12 02:59:11;;;;;;;12.68;5.05;;;-5.70;99.90;;;;;;4957275;28;20043;-78
2022/01/12 03:02:03;;;;;;;12.75;5.53;;;-5.60;99.90;;;;;;4967437;28;20042;-78
2022/01/12 03:04:23;;;;;;;12.25;5.03;;;-5.70;99.90;;;;;;4976530;28;20125;-77
2022/01/12 03:06:51;;;;;;;9.88;4.30;;;-5.80;99.90;;;;;;4964040;28;20539;-78
2022/01/12 03:09:16;;;;;;;11.48;4.63;;;-5.70;99.90;;;;;;4965247;28;20487;-78
2022/01/12 03:11:42;;;;;;;13.55;4.70;;;-5.60;99.90;;;;;;4965994;28;20046;-79
2022/01/12 03:14:09;;;;;;;11.35;4.47;;;-5.60;99.90;;;;;;4952748;28;20057;-79
2022/01/12 03:16:35;;;;;;;13.95;5.25;;;-5.60;99.90;;;;;;4947067;28;20031;-78
2022/01/12 03:19:02;;;;;;;14.25;4.78;;;-5.60;99.90;;;;;;4952417;28;20671;-78
2022/01/12 03:21:31;;;;;;;15.38;4.90;;;-5.60;99.90;;;;;;4940420;28;20047;-78
2022/01/12 03:23:57;;;;;;;12.57;4.18;;;-5.50;99.90;;;;;;4948467;28;20059;-78
2022/01/12 03:26:25;;;;;;;11.70;3.97;;;-5.40;99.90;;;;;;4950762;28;20034;-78
2022/01/12 03:28:53;;;;;;;12.55;4.18;;;-5.40;99.90;;;;;;4963000;28;20032;-78
2022/01/12 03:31:25;;;;;;;8.70;2.85;;;-5.50;99.90;;;;;;4963619;28;20100;-79
2022/01/12 03:34:24;;;;;;;12.07;4.28;;;-5.60;99.90;;;;;;4947309;28;20053;-79
2022/01/12 03:36:53;;;;;;;10.38;4.18;;;-5.60;99.90;;;;;;4977293;28;20070;-80
2022/01/12 03:39:18;;;;;;;10.68;3.72;;;-5.50;99.90;;;;;;4995867;28;20042;-80
2022/01/12 03:41:44;;;;;;;12.68;4.15;;;-5.50;99.90;;;;;;4976628;28;20034;-80
2022/01/12 03:44:11;;;;;;;;;;;-5.60;99.90;;;;;;4995641;28;20034;-79
2022/01/12 03:46:47;;;;;;;12.90;4.95;;;-5.70;99.90;;;;;;4978208;28;19918;-80
2022/01/12 03:49:13;;;;;;;13.63;4.75;;;-5.70;99.90;;;;;;4981059;28;20035;-79
2022/01/12 03:51:39;;;;;;;12.70;4.25;;;-5.70;99.90;;;;;;4977503;28;20035;-79
2022/01/12 03:54:05;;;;;;;13.13;4.78;;;-5.80;99.90;;;;;;4978176;28;20026;-79
2022/01/12 03:56:31;;;;;;;11.27;4.88;;;-5.80;99.90;;;;;;4975981;28;20019;-80
2022/01/12 03:58:57;;;;;;;16.60;6.13;;;-5.90;99.90;;;;;;4976881;28;20027;-80
2022/01/12 04:01:23;;;;;;;9.88;4.03;;;-6.00;99.90;;;;;;4977440;28;20027;-80
2022/01/12 04:03:59;;;;;;;10.38;4.28;;;-6.00;99.90;;;;;;4977574;28;20042;-80
2022/01/12 04:09:09;;;;;;;18.27;7.00;;;-6.10;99.90;;;;;;4994451;28;20046;-80
2022/01/12 04:11:35;;;;;;;34.30;13.82;;;-6.20;99.90;;;;;;4977384;28;20023;-80
2022/01/12 04:14:01;;;;;;;52.80;21.23;;;-6.20;99.90;;;;;;4975472;28;20050;-79
2022/01/12 04:16:27;;;;;;;44.50;18.05;;;-6.20;99.90;;;;;;4993546;28;20050;-79
2022/01/12 04:18:52;;;;;;;34.20;11.88;;;-6.20;99.90;;;;;;4976299;28;20471;-80
2022/01/12 04:21:25;;;;;;;19.55;8.00;;;-6.20;99.90;;;;;;4977569;28;20034;-80
2022/01/12 04:23:51;;;;;;;25.40;9.38;;;-6.10;99.90;;;;;;4993537;28;20034;-80
2022/01/12 04:26:16;;;;;;;200.75;79.78;;;-6.10;99.90;;;;;;4975596;28;20398;-79
2022/01/12 04:28:43;;;;;;;150.80;63.17;;;-6.00;99.90;;;;;;4993607;28;20066;-80
2022/01/12 04:31:11;;;;;;;81.80;32.50;;;-5.90;99.90;;;;;;4978126;28;20034;-78
2022/01/12 04:33:38;;;;;;;40.88;19.13;;;-5.90;99.90;;;;;;4977484;28;20062;-79
2022/01/12 04:36:06;;;;;;;15.45;6.20;;;-6.00;99.90;;;;;;4975820;28;20019;-81
2022/01/12 04:38:34;;;;;;;13.45;6.43;;;-6.00;99.90;;;;;;4976416;28;20022;-80
2022/01/12 04:41:01;;;;;;;13.05;6.07;;;-6.00;99.90;;;;;;4976932;28;20441;-80
2022/01/12 04:43:27;;;;;;;13.52;6.82;;;-6.10;99.90;;;;;;4978784;28;20070;-79
2022/01/12 04:50:51;;;;;;;33.03;11.88;;;-6.30;99.90;;;;;;4993944;28;20058;-80
2022/01/12 04:53:18;;;;;;;44.13;14.13;;;-6.30;99.90;;;;;;4977126;28;20035;-80
2022/01/12 04:55:45;;;;;;;42.70;15.43;;;-6.40;99.90;;;;;;4994389;28;20014;-81
2022/01/12 04:58:12;;;;;;;32.72;13.18;;;-6.40;99.90;;;;;;4978242;28;20058;-79
2022/01/12 05:00:38;;;;;;;16.92;6.93;;;-6.50;99.90;;;;;;4993577;28;20026;-79
2022/01/12 05:08:49;;;;;;;15.10;5.57;;;-6.10;99.90;;;;;;4993356;28;20098;-79
2022/01/12 05:14:01;;;;;;;13.00;5.43;;;-6.10;99.90;;;;;;4993933;28;20069;-81
2022/01/12 05:16:27;;;;;;;16.30;5.75;;;-6.10;99.90;;;;;;4996239;28;20051;-80
2022/01/12 05:18:55;;;;;;;49.47;21.85;;;-6.20;99.90;;;;;;4980419;28;20027;-79
2022/01/12 05:21:23;;;;;;;92.05;32.08;;;-6.20;99.90;;;;;;4976809;28;20073;-79
2022/01/12 05:23:49;;;;;;;32.67;12.70;;;-6.30;99.90;;;;;;4978669;28;20047;-80
2022/01/12 05:26:15;;;;;;;28.05;10.52;;;-6.40;99.90;;;;;;4981779;28;20003;-81
2022/01/12 05:28:41;;;;;;;14.20;6.22;;;-6.40;99.90;;;;;;4980338;28;20099;-78
2022/01/12 05:31:09;;;;;;;15.88;6.72;;;-6.30;99.90;;;;;;4998636;28;20031;-80
2022/01/12 05:33:36;;;;;;;22.55;8.23;;;-6.30;99.90;;;;;;4984456;28;20047;-79
2022/01/12 05:36:04;;;;;;;18.83;8.40;;;-6.30;99.90;;;;;;4985244;28;20051;-79
2022/01/12 05:38:30;;;;;;;14.82;7.28;;;-6.40;99.90;;;;;;4983698;28;20015;-80
2022/01/12 05:41:02;;;;;;;17.00;6.18;;;-6.30;99.90;;;;;;4998852;28;20030;-80
2022/01/12 05:43:30;;;;;;;15.70;5.85;;;-6.30;99.90;;;;;;4998497;28;20027;-80
2022/01/12 05:45:59;;;;;;;13.70;6.38;;;-6.30;99.90;;;;;;4998060;28;20011;-80
2022/01/12 05:51:09;;;;;;;14.98;7.10;;;-6.20;99.90;;;;;;4998759;28;20046;-81
2022/01/12 05:53:35;;;;;;;16.58;7.20;;;-6.10;99.90;;;;;;4983018;28;20034;-79
2022/01/12 05:56:00;;;;;;;15.77;7.18;;;-6.10;99.90;;;;;;4982250;28;20019;-79
2022/01/12 05:58:27;;;;;;;18.65;7.10;;;-6.10;99.90;;;;;;4981509;28;20034;-79
2022/01/12 06:00:53;;;;;;;17.30;7.47;;;-6.20;99.90;;;;;;4998549;28;20062;-80
2022/01/12 06:03:19;;;;;;;36.63;13.30;;;-6.30;99.90;;;;;;4981675;28;20050;-80
2022/01/12 06:05:44;;;;;;;49.15;18.27;;;-6.30;99.90;;;;;;4998065;28;20011;-80
2022/01/12 06:08:10;;;;;;;44.53;15.93;;;-6.40;99.90;;;;;;4980420;28;20062;-80
2022/01/12 06:10:36;;;;;;;62.83;21.33;;;-6.50;99.90;;;;;;4980377;28;20010;-80
2022/01/12 06:13:01;;;;;;;48.55;18.50;;;-6.50;99.90;;;;;;4980842;28;20031;-81
2022/01/12 06:15:27;;;;;;;42.50;16.88;;;-6.50;99.90;;;;;;4980954;28;20038;-81
2022/01/12 06:17:53;;;;;;;36.08;16.00;;;-6.40;99.90;;;;;;4996127;28;20062;-79
2022/01/12 06:20:18;;;;;;;31.35;13.80;;;-6.40;99.90;;;;;;4996599;28;20038;-79
2022/01/12 06:22:44;;;;;;;26.20;11.18;;;-6.20;99.90;;;;;;4994265;28;20058;-79
2022/01/12 06:25:14;;;;;;;23.33;10.27;;;-6.10;99.90;;;;;;4994022;28;20102;-79
2022/01/12 06:27:49;;;;;;;21.27;6.72;;;-6.10;99.90;;;;;;4979073;28;20050;-80
2022/01/12 06:32:58;;;;;;;24.10;9.43;;;-5.90;99.90;;;;;;4995670;28;20053;-80
2022/01/12 06:35:25;;;;;;;23.58;9.05;;;-5.70;99.90;;;;;;4978734;28;20011;-79
2022/01/12 06:37:51;;;;;;;20.38;9.20;;;-5.50;99.90;;;;;;4977317;28;20033;-80
2022/01/12 06:40:18;;;;;;;19.75;8.55;;;-5.30;99.90;;;;;;4979970;28;20023;-80
2022/01/12 06:42:44;;;;;;;22.77;8.77;;;-5.20;99.90;;;;;;4979756;28;20015;-80
2022/01/12 06:45:10;;;;;;;22.63;9.35;;;-5.30;99.90;;;;;;4999242;28;20199;-82
2022/01/12 06:47:36;;;;;;;26.80;9.77;;;-5.40;99.90;;;;;;4983548;28;20065;-79
2022/01/12 06:50:03;;;;;;;28.92;11.75;;;-5.50;99.90;;;;;;4979934;28;20011;-79
2022/01/12 06:52:29;;;;;;;68.40;24.92;;;-5.60;99.90;;;;;;4979946;28;20031;-79
2022/01/12 06:54:55;;;;;;;49.65;18.70;;;-5.70;99.90;;;;;;4978854;28;20021;-80
2022/01/12 06:57:21;;;;;;;25.13;10.30;;;-5.70;99.90;;;;;;4978347;28;20046;-79
2022/01/12 06:59:47;;;;;;;24.75;9.27;;;-5.60;99.90;;;;;;4979874;28;20022;-79
2022/01/12 07:02:13;;;;;;;27.77;9.27;;;-5.60;99.90;;;;;;4978635;28;20029;-80
2022/01/12 07:04:38;;;;;;;22.40;8.55;;;-5.70;99.90;;;;;;4978554;28;20079;-79
2022/01/12 07:07:04;;;;;;;35.55;14.98;;;-5.60;99.90;;;;;;4979334;28;20041;-79
2022/01/12 07:09:30;;;;;;;25.50;9.02;;;-5.50;99.90;;;;;;4979829;28;20022;-80
2022/01/12 07:11:56;;;;;;;41.42;17.02;;;-5.50;99.90;;;;;;4979195;28;20038;-80
2022/01/12 07:14:22;;;;;;;34.33;13.57;;;-5.30;99.90;;;;;;4978262;28;20042;-80
2022/01/12 07:16:47;;;;;;;43.75;21.52;;;-5.10;99.90;;;;;;4979544;28;20041;-81
2022/01/12 07:19:13;;;;;;;117.10;44.75;;;-4.80;99.90;;;;;;4980022;28;20015;-80
2022/01/12 07:21:39;;;;;;;;;;;-4.50;99.90;;;;;;4997908;28;20034;-80
2022/01/12 07:24:05;;;;;;;144.73;54.00;;;-4.30;99.90;;;;;;4995936;28;19945;-81
2022/01/12 07:26:31;;;;;;;139.05;52.10;;;-4.00;99.90;;;;;;4976440;28;20435;-79
2022/01/12 07:28:56;;;;;;;125.68;49.55;;;-3.70;99.90;;;;;;4979307;28;20014;-81
2022/01/12 07:31:23;;;;;;;;;;;-3.40;99.90;;;;;;4996218;28;20027;-80
2022/01/12 07:33:54;;;;;;;95.82;35.05;;;-3.10;99.90;;;;;;4994364;28;19918;-82
2022/01/12 07:36:20;;;;;;;78.72;31.50;;;-2.90;99.90;;;;;;4994670;28;20034;-81
2022/01/12 07:38:48;;;;;;;;;;;-2.70;99.90;;;;;;4994123;28;20013;-81
2022/01/12 07:41:14;;;;;;;72.75;30.42;;;-2.70;99.90;;;;;;4994782;28;19906;-81
2022/01/12 07:43:40;;;;;;;;;;;-2.60;99.90;;;;;;4994546;28;20019;-81
2022/01/12 07:46:05;;;;;;;66.13;30.83;;;-2.50;99.90;;;;;;4993238;28;19973;-81
2022/01/12 07:48:31;;;;;;;;;;;-2.40;99.90;;;;;;4977113;28;20015;-80
2022/01/12 07:50:56;;;;;;;77.90;31.50;;;-2.30;99.90;;;;;;4978663;28;19913;-81
2022/01/12 07:53:22;;;;;;;;;;;-2.10;99.90;;;;;;4996172;28;20070;-81
2022/01/12 07:55:48;;;;;;;63.72;25.02;;;-2.00;99.90;;;;;;4993584;28;19913;-82
2022/01/12 07:58:13;;;;;;;;;;;-1.80;99.70;;;;;;4977746;28;20078;-81
2022/01/12 08:00:39;;;;;;;46.33;20.85;;;-1.60;98.60;;;;;;4977204;28;20128;-81
2022/01/12 08:03:04;;;;;;;;;;;-1.30;99.20;;;;;;4978227;28;20014;-82
2022/01/12 08:05:30;;;;;;;69.57;30.65;;;-0.90;97.90;;;;;;4977463;28;19906;-82
2022/01/12 08:07:56;;;;;;;;;;;-0.50;97.50;;;;;;4976883;28;20027;-81
2022/01/12 08:10:22;;;;;;;125.97;57.67;;;-0.20;93.80;;;;;;4976923;28;19906;-82
2022/01/12 08:12:48;;;;;;;98.22;47.45;;;0.10;94.40;;;;;;4977146;28;20121;-82
2022/01/12 08:15:14;;;;;;;48.03;23.75;;;0.40;92.80;;;;;;4978545;28;20066;-82
2022/01/12 08:17:40;;;;;;;43.63;21.75;;;0.60;89.00;;;;;;4975522;28;20034;-81
2022/01/12 08:20:07;;;;;;;;;;;0.80;80.60;;;;;;4991594;28;20022;-82
2022/01/12 08:22:33;;;;;;;34.13;17.90;;;0.80;77.70;;;;;;4991944;28;19913;-81
2022/01/12 08:24:59;;;;;;;31.15;13.70;;;0.90;81.20;;;;;;4974813;28;20066;-83
2022/01/12 08:27:25;;;;;;;29.08;14.40;;;1.00;79.60;;;;;;4974026;28;20031;-82
2022/01/12 08:29:54;;;;;;;34.55;15.63;;;1.30;75.60;;;;;;4974493;28;20039;-82
2022/01/12 08:32:19;;;;;;;28.50;15.40;;;1.50;73.80;;;;;;4973691;28;20034;-80
2022/01/12 08:34:45;;;;;;;38.28;17.20;;;1.80;71.40;;;;;;4974991;28;20043;-80
2022/01/12 08:37:10;;;;;;;40.33;17.65;;;2.10;70.10;;;;;;4992774;28;20038;-81
2022/01/12 08:39:36;;;;;;;;;;;2.40;66.70;;;;;;4993717;28;20010;-82
2022/01/12 08:42:02;;;;;;;31.73;16.92;;;2.80;65.50;;;;;;4993352;28;19906;-80
2022/01/12 08:44:27;;;;;;;32.95;15.50;;;3.10;64.80;;;;;;4975409;28;20094;-80
2022/01/12 08:46:53;;;;;;;;;;;3.60;64.70;;;;;;4994693;28;20031;-81
2022/01/12 08:49:19;;;;;;;20.35;10.80;;;3.90;59.90;;;;;;4979083;28;19910;-80
2022/01/12 08:51:44;;;;;;;23.30;12.73;;;4.00;58.60;;;;;;4979037;28;20011;-78
2022/01/12 08:54:10;;;;;;;34.33;14.43;;;4.10;58.40;;;;;;4996606;28;20027;-79
2022/01/12 08:56:37;;;;;;;;;;;4.00;58.10;;;;;;4996419;28;20013;-79
2022/01/12 08:59:03;;;;;;;76.75;38.72;;;3.90;58.00;;;;;;4978655;28;19909;-79
2022/01/12 09:01:28;;;;;;;;;;;3.50;58.10;;;;;;4979784;28;20098;-81
2022/01/12 09:03:54;;;;;;;27.45;12.27;;;3.20;60.40;;;;;;4978570;28;19906;-80
2022/01/12 09:06:20;;;;;;;28.88;14.55;;;3.00;62.80;;;;;;4993690;28;20026;-80
2022/01/12 09:08:45;;;;;;;;;;;2.70;63.60;;;;;;4991553;28;20023;-81
2022/01/12 09:11:13;;;;;;;24.58;13.82;;;2.60;62.70;;;;;;4972500;28;19930;-82
2022/01/12 09:13:39;;;;;;;18.92;9.80;;;2.30;63.20;;;;;;4972777;28;20031;-81
2022/01/12 09:16:06;;;;;;;;;;;2.30;64.70;;;;;;4971818;28;20037;-82
2022/01/12 09:18:34;;;;;;;22.45;11.73;;;2.20;64.40;;;;;;4971751;28;19906;-80
2022/01/12 09:21:00;;;;;;;32.80;14.80;;;2.00;66.40;;;;;;4972945;28;20070;-81
2022/01/12 09:23:26;;;;;;;31.88;17.23;;;1.90;68.10;;;;;;4990290;28;20059;-81
2022/01/12 09:25:51;;;;;;;;;;;1.80;68.40;;;;;;4974990;28;20031;-82
2022/01/12 09:28:17;;;;;;;35.47;17.27;;;1.70;69.30;;;;;;4972850;28;19915;-81
2022/01/12 09:30:43;;;;;;;;;;;1.70;67.40;;;;;;4991307;28;20027;-81
2022/01/12 09:33:09;;;;;;;26.05;13.35;;;1.60;68.70;;;;;;4974424;28;19910;-81
2022/01/12 09:35:34;;;;;;;28.30;13.15;;;1.40;70.10;;;;;;4991079;28;20063;-81
2022/01/12 09:38:00;;;;;;;28.58;13.23;;;1.40;70.20;;;;;;4973557;28;20027;-82
2022/01/12 09:40:26;;;;;;;25.30;12.05;;;1.40;70.70;;;;;;4990699;28;20022;-82
2022/01/12 09:42:53;;;;;;;24.25;11.90;;;1.30;72.30;;;;;;4974986;28;20034;-81
2022/01/12 09:45:19;;;;;;;33.13;12.93;;;1.30;71.50;;;;;;4975729;28;20027;-82
2022/01/12 09:47:47;;;;;;;20.23;10.18;;;1.20;72.90;;;;;;4973219;28;20069;-81
2022/01/12 09:50:15;;;;;;;22.70;9.38;;;1.10;73.80;;;;;;4973880;28;20054;-82
2022/01/12 09:52:41;;;;;;;15.60;7.30;;;1.20;73.10;;;;;;4990853;28;20022;-82
2022/01/12 09:55:06;;;;;;;;;;;0.90;74.20;;;;;;4973309;28;20046;-80
2022/01/12 09:57:32;;;;;;;17.52;8.20;;;0.90;75.90;;;;;;4972616;28;19906;-81
2022/01/12 09:59:58;;;;;;;19.48;9.88;;;0.80;76.40;;;;;;4973299;28;20027;-82
2022/01/12 10:02:23;;;;;;;;;;;0.70;78.10;;;;;;4972634;28;20023;-80
2022/01/12 10:05:03;;;;;;;21.00;10.77;;;0.70;79.50;;;;;;4989627;28;19906;-81
2022/01/12 10:07:29;;;;;;;24.90;12.85;;;0.70;80.70;;;;;;4990370;28;20030;-81
2022/01/12 10:10:04;;;;;;;;;;;0.70;81.50;;;;;;4973768;28;20023;-82
2022/01/12 10:12:30;;;;;;;25.00;11.57;;;0.60;82.10;;;;;;4976497;28;19914;-80
2022/01/12 10:14:59;;;;;;;;;;;0.60;82.90;;;;;;4977168;28;20038;-81
2022/01/12 10:17:41;;;;;;;18.00;7.90;;;0.70;82.10;;;;;;4976875;28;19910;-80
2022/01/12 10:20:07;;;;;;;22.38;10.30;;;0.70;83.30;;;;;;4976721;28;20023;-80
2022/01/12 10:22:33;;;;;;;;;;;0.60;84.40;;;;;;4977271;28;20061;-81
2022/01/12 10:25:00;;;;;;;18.63;8.20;;;0.70;86.10;;;;;;4994110;28;20390;-81
2022/01/12 10:27:25;;;;;;;15.48;7.57;;;0.70;85.80;;;;;;4976380;28;20480;-81
2022/01/12 10:29:55;;;;;;;;;;;0.70;84.90;;;;;;4994420;28;20069;-81
2022/01/12 10:32:21;;;;;;;16.40;7.55;;;0.70;87.10;;;;;;4993391;28;19912;-81
2022/01/12 10:34:48;;;;;;;;;;;0.70;87.10;;;;;;4976437;28;20642;-82
2022/01/12 10:37:22;;;;;;;18.13;8.97;;;0.60;87.50;;;;;;4976952;28;19913;-82
2022/01/12 10:39:49;;;;;;;21.27;10.30;;;0.60;87.80;;;;;;4976229;28;20398;-81
2022/01/12 10:42:18;;;;;;;22.95;9.43;;;0.50;90.00;;;;;;4994493;28;20023;-81
2022/01/12 10:44:48;;;;;;;20.05;9.93;;;0.60;90.30;;;;;;4975501;28;20052;-81
2022/01/12 10:47:21;;;;;;;20.38;10.15;;;0.50;90.20;;;;;;4976849;28;20013;-81
2022/01/12 10:49:52;;;;;;;16.95;9.00;;;0.40;90.70;;;;;;4979613;28;20054;-82
2022/01/12 10:52:19;;;;;;;16.48;7.55;;;0.50;91.10;;;;;;4976283;28;20030;-80
2022/01/12 10:54:56;;;;;;;58.10;22.23;;;0.50;89.50;;;;;;4991463;28;20087;-81
2022/01/12 10:57:30;;;;;;;51.22;23.60;;;0.50;87.70;;;;;;4973922;28;20049;-81
2022/01/12 11:00:00;;;;;;;29.40;13.27;;;0.60;88.50;;;;;;4975938;28;20031;-80
2022/01/12 11:02:29;;;;;;;21.15;10.43;;;0.60;87.90;;;;;;4992601;28;20031;-79
2022/01/12 11:04:57;;;;;;;15.35;7.60;;;0.50;89.10;;;;;;4992519;28;20026;-82
2022/01/12 11:07:24;;;;;;;15.57;7.38;;;0.50;90.50;;;;;;4975121;28;20033;-80
2022/01/12 11:09:54;;;;;;;17.55;7.75;;;0.50;90.70;;;;;;4993397;28;20019;-80
2022/01/12 11:12:20;;;;;;;25.65;11.25;;;0.50;90.40;;;;;;4978529;28;20033;-82
2022/01/12 11:14:45;;;;;;;;;;;0.50;90.30;;;;;;4994898;28;20083;-81
2022/01/12 11:17:11;;;;;;;20.48;8.40;;;0.50;90.80;;;;;;4975972;28;19949;-80
2022/01/12 11:19:38;;;;;;;14.60;6.85;;;0.50;85.80;;;;;;4976743;28;20073;-81
2022/01/12 11:22:21;;;;;;;15.07;7.30;;;0.60;85.20;;;;;;4975562;28;20058;-80
2022/01/12 11:24:46;;;;;;;15.15;7.72;;;0.60;85.30;;;;;;4975346;28;20057;-80
2022/01/12 11:27:19;;;;;;;;;;;0.50;85.50;;;;;;4975181;28;20034;-80
2022/01/12 11:29:45;;;;;;;41.90;24.90;;;0.50;88.10;;;;;;4974029;28;19953;-81
2022/01/12 11:32:13;;;;;;;;;;;0.50;88.60;;;;;;4974317;28;20023;-79
2022/01/12 11:34:40;;;;;;;26.10;13.35;;;0.50;90.40;;;;;;4990948;28;19947;-79
2022/01/12 11:37:14;;;;;;;32.95;15.50;;;0.50;86.60;;;;;;4975393;28;20027;-80
2022/01/12 11:39:40;;;;;;;29.60;13.63;;;0.60;87.20;;;;;;4992117;28;20038;-79
2022/01/12 11:42:05;;;;;;;;;;;0.60;86.20;;;;;;4992753;28;20031;-81
2022/01/12 11:44:35;;;;;;;31.20;12.60;;;0.60;87.10;;;;;;4990433;28;19897;-80
2022/01/12 11:47:04;;;;;;;36.33;15.68;;;0.60;87.10;;;;;;4991222;28;20495;-78
2022/01/12 11:49:40;;;;;;;28.50;14.13;;;0.60;88.00;;;;;;4973421;28;20023;-80
2022/01/12 11:52:25;;;;;;;20.50;9.75;;;0.60;87.10;;;;;;4991254;28;20027;-80
2022/01/12 11:54:53;;;;;;;26.30;15.25;;;0.60;86.10;;;;;;4990396;28;20039;-81
2022/01/12 11:57:35;;;;;;;21.60;11.05;;;0.60;84.50;;;;;;4971795;28;20091;-80
2022/01/12 12:00:12;;;;;;;19.20;9.52;;;0.60;85.20;;;;;;4971048;28;20027;-79
2022/01/12 12:02:47;;;;;;;45.63;21.45;;;0.50;87.80;;;;;;4988085;28;20498;-79
2022/01/12 12:05:16;;;;;;;23.35;11.65;;;0.60;87.50;;;;;;4972206;28;20030;-80
2022/01/12 12:07:50;;;;;;;21.23;10.73;;;0.60;86.10;;;;;;4989748;28;20082;-79
2022/01/12 12:10:22;;;;;;;26.20;13.45;;;0.60;85.40;;;;;;4989151;28;20022;-80
2022/01/12 12:12:50;;;;;;;25.10;10.10;;;0.60;83.70;;;;;;4971861;28;20031;-79
2022/01/12 12:15:16;;;;;;;21.38;10.43;;;0.70;82.70;;;;;;4971583;28;20031;-80
2022/01/12 12:17:43;;;;;;;20.48;9.27;;;0.60;83.20;;;;;;4972786;28;20015;-81
2022/01/12 12:20:12;;;;;;;21.42;9.70;;;0.70;83.10;;;;;;4972293;28;20506;-78
2022/01/12 12:22:40;;;;;;;26.73;14.55;;;0.70;83.90;;;;;;4987306;28;20003;-80
2022/01/12 12:25:14;;;;;;;25.15;12.55;;;0.80;83.00;;;;;;4989679;28;20015;-80
2022/01/12 12:27:43;;;;;;;27.60;13.43;;;0.70;82.30;;;;;;4972315;28;20602;-80
2022/01/12 12:30:13;;;;;;;98.15;53.88;;;0.70;80.90;;;;;;4973253;28;20035;-79
2022/01/12 12:32:41;;;;;;;56.88;28.40;;;0.60;82.50;;;;;;4970899;28;20031;-79
2022/01/12 12:35:11;;;;;;;28.98;14.00;;;0.60;84.00;;;;;;4987706;28;20045;-80
2022/01/12 12:37:46;;;;;;;24.23;11.50;;;0.50;84.60;;;;;;4989181;28;20026;-80
2022/01/12 12:40:18;;;;;;;21.42;10.25;;;0.60;84.80;;;;;;4973486;28;20040;-79
2022/01/12 12:42:47;;;;;;;21.10;10.00;;;0.70;84.60;;;;;;4993811;28;20030;-80
2022/01/12 12:45:13;;;;;;;21.00;9.77;;;0.70;83.80;;;;;;4971077;28;20034;-81
2022/01/12 12:47:39;;;;;;;;;;;0.70;83.60;;;;;;4971462;28;20038;-80
2022/01/12 12:50:13;;;;;;;19.65;8.98;;;0.70;82.90;;;;;;4970704;28;19906;-80
2022/01/12 12:52:39;;;;;;;20.10;9.77;;;0.70;82.10;;;;;;4986946;28;20086;-79
2022/01/12 12:55:11;;;;;;;21.58;10.30;;;0.70;82.40;;;;;;4970435;28;20081;-80
2022/01/12 12:57:49;;;;;;;19.98;9.20;;;0.70;82.70;;;;;;4987034;28;20077;-81
2022/01/12 13:00:17;;;;;;;20.83;10.27;;;0.70;82.70;;;;;;4970991;28;20034;-79
2022/01/12 13:02:46;;;;;;;17.95;8.68;;;0.80;81.40;;;;;;4987861;28;20061;-79
2022/01/12 13:05:16;;;;;;;17.67;8.23;;;0.80;79.80;;;;;;4988101;28;20025;-80
2022/01/12 13:07:44;;;;;;;17.90;8.63;;;0.80;80.10;;;;;;4971810;28;20063;-80
2022/01/12 13:10:14;;;;;;;22.05;9.57;;;0.70;80.10;;;;;;4988309;28;20089;-80
2022/01/12 13:12:43;;;;;;;24.25;9.90;;;0.70;80.00;;;;;;4988640;28;20142;-81
2022/01/12 13:15:11;;;;;;;21.83;9.35;;;0.70;80.10;;;;;;4987981;28;20046;-80
2022/01/12 13:17:41;;;;;;;21.52;11.68;;;0.80;81.00;;;;;;4971386;28;20027;-79
2022/01/12 13:22:47;;;;;;;23.40;10.68;;;0.70;81.30;;;;;;4988338;28;20069;-79
2022/01/12 13:25:15;;;;;;;18.60;9.20;;;0.70;81.80;;;;;;4991965;28;20121;-80
2022/01/12 13:27:43;;;;;;;19.55;9.68;;;0.70;82.60;;;;;;4974365;28;20030;-79
2022/01/12 13:30:21;;;;;;;20.85;10.10;;;0.70;82.20;;;;;;4969321;28;20034;-80
2022/01/12 13:32:55;;;;;;;27.42;15.60;;;0.60;83.00;;;;;;4968278;28;20034;-80
2022/01/12 13:35:29;;;;;;;35.30;16.92;;;0.60;83.00;;;;;;4986589;28;20062;-80
2022/01/12 13:37:58;;;;;;;30.70;14.80;;;0.60;83.20;;;;;;4986135;28;20031;-80
2022/01/12 13:40:31;;;;;;;34.15;16.13;;;0.60;83.50;;;;;;4963743;28;20030;-80
2022/01/12 13:42:59;;;;;;;28.75;13.85;;;0.60;83.70;;;;;;4985974;28;20023;-80
2022/01/12 13:45:45;;;;;;;27.35;14.23;;;0.50;83.90;;;;;;4981959;28;20089;-79
2022/01/12 13:48:18;;;;;;;28.17;11.82;;;0.50;84.20;;;;;;4985964;28;20019;-79
2022/01/12 13:50:47;;;;;;;28.65;13.18;;;0.50;85.20;;;;;;4967896;28;20045;-79
2022/01/12 13:53:13;;;;;;;24.52;12.20;;;0.50;84.60;;;;;;4985629;28;20027;-79
2022/01/12 13:55:59;;;;;;;33.92;15.88;;;0.50;84.30;;;;;;4968858;28;20039;-78
2022/01/12 13:58:27;;;;;;;32.50;16.10;;;0.40;83.80;;;;;;4986465;28;20514;-79
2022/01/12 14:01:10;;;;;;;33.95;13.73;;;0.40;83.70;;;;;;4966915;28;20031;-78
2022/01/12 14:03:40;;;;;;;37.50;17.80;;;0.30;84.10;;;;;;4966952;28;20031;-78
2022/01/12 14:06:21;;;;;;;44.83;22.23;;;0.30;84.60;;;;;;4965811;28;20033;-78